createdAt,value
2023-02-13T00:00:47.251Z,102856.84
2023-02-13T00:03:14.366Z,102863.84
2023-02-13T00:05:41.437Z,102868.16
2023-02-13T00:08:08.402Z,102872.47
2023-02-13T00:10:35.394Z,102866.38
2023-02-13T00:13:02.417Z,102867.19
2023-02-13T00:15:29.457Z,102869.69
2023-02-13T00:17:56.475Z,102868.63
2023-02-13T00:20:24.476Z,102867.72
2023-02-13T00:22:51.470Z,102869.53
2023-02-13T00:25:18.729Z,102857.41
2023-02-13T00:27:45.780Z,102866.19
2023-02-13T00:30:13.590Z,102864.50
2023-02-13T00:32:40.559Z,102868.88
2023-02-13T00:35:10.637Z,102858.47
2023-02-13T00:37:38.295Z,102862.06
2023-02-13T00:40:05.941Z,102859.38
2023-02-13T00:42:32.871Z,102862.06
2023-02-13T00:44:59.802Z,102864.56
2023-02-13T00:47:26.862Z,102857.50
2023-02-13T00:49:53.791Z,102872.94
2023-02-13T00:52:20.682Z,102866.84
2023-02-13T00:54:47.849Z,102859.81
2023-02-13T00:57:14.796Z,102851.22
2023-02-13T00:59:41.738Z,102855.69
2023-02-13T01:02:08.679Z,102854.78
2023-02-13T01:04:35.711Z,102850.31
2023-02-13T01:07:02.642Z,102863.25
2023-02-13T01:09:29.608Z,102857.13
2023-02-13T01:11:56.560Z,102864.94
2023-02-13T01:14:23.521Z,102853.72
2023-02-13T01:16:50.443Z,102860.81
2023-02-13T01:19:17.538Z,102857.50
2023-02-13T01:21:44.682Z,102865.56
2023-02-13T01:24:12.031Z,102864.84
2023-02-13T01:26:39.572Z,102863.19
2023-02-13T01:29:06.961Z,102864.03
2023-02-13T01:31:34.386Z,102856.13
2023-02-13T01:34:01.413Z,102862.16
2023-02-13T01:36:28.593Z,102856.03
2023-02-13T01:38:58.223Z,102851.72
2023-02-13T01:41:27.379Z,102858.66
2023-02-13T01:43:58.106Z,102849.94
2023-02-13T01:46:43.404Z,102847.97
2023-02-13T01:49:18.787Z,102854.97
2023-02-13T01:51:47.558Z,102849.75
2023-02-13T01:54:23.251Z,102858.47
2023-02-13T01:56:55.908Z,102853.00
2023-02-13T01:59:44.564Z,102846.09
2023-02-13T02:02:11.505Z,102850.41
2023-02-13T02:04:41.409Z,102852.09
2023-02-13T02:07:20.696Z,102849.28
2023-02-13T02:09:48.441Z,102850.97
2023-02-13T02:12:31.915Z,102849.81
2023-02-13T02:15:01.534Z,102853.31
2023-02-13T02:17:28.616Z,102858.63
2023-02-13T02:20:33.668Z,102850.81
2023-02-13T02:23:37.346Z,102856.91
2023-02-13T02:26:28.756Z,102863.75
2023-02-13T02:29:25.187Z,102862.66
2023-02-13T02:32:45.676Z,102865.19
2023-02-13T02:35:36.635Z,102857.19
2023-02-13T02:38:42.064Z,102862.34
2023-02-13T02:41:42.590Z,102867.47
2023-02-13T02:44:34.942Z,102856.06
2023-02-13T02:47:32.699Z,102863.88
2023-02-13T02:50:17.771Z,102866.47
2023-02-13T02:55:47.672Z,102861.19
2023-02-13T02:59:21.180Z,102859.38
2023-02-13T03:02:08.400Z,102857.41
2023-02-13T03:05:10.190Z,102859.94
2023-02-13T03:07:37.084Z,102858.31
2023-02-13T03:10:32.084Z,102859.94
2023-02-13T03:13:21.602Z,102873.84
2023-02-13T03:16:13.548Z,102871.94
2023-02-13T03:19:04.382Z,102858.94
2023-02-13T03:22:16.504Z,102865.94
2023-02-13T03:25:18.723Z,102869.53
2023-02-13T03:28:36.674Z,102870.22
2023-02-13T03:31:15.365Z,102866.66
2023-02-13T03:34:10.997Z,102869.16
2023-02-13T03:37:09.566Z,102867.47
2023-02-13T03:40:02.204Z,102869.97
2023-02-13T03:42:47.448Z,102855.16
2023-02-13T03:45:44.374Z,102849.78
2023-02-13T03:48:33.160Z,102858.41
2023-02-13T03:51:02.719Z,102855.81
2023-02-13T03:53:33.547Z,102854.09
2023-02-13T03:56:21.970Z,102847.09
2023-02-13T03:59:12.040Z,102859.38
2023-02-13T04:01:40.114Z,102850.06
2023-02-13T04:04:23.303Z,102849.97
2023-02-13T04:07:08.870Z,102853.38
2023-02-13T04:09:41.459Z,102848.25
2023-02-13T04:12:24.839Z,102838.75
2023-02-13T04:15:29.455Z,102847.47
2023-02-13T04:18:09.643Z,102843.06
2023-02-13T04:20:39.811Z,102851.69
2023-02-13T04:23:11.565Z,102839.28
2023-02-13T04:25:42.073Z,102857.31
2023-02-13T04:28:09.321Z,102851.16
2023-02-13T04:30:36.361Z,102847.66
2023-02-13T04:33:03.303Z,102850.28
2023-02-13T04:35:30.421Z,102843.28
2023-02-13T04:37:57.295Z,102844.97
2023-02-13T04:40:24.370Z,102842.28
2023-02-13T04:42:51.266Z,102844.09
2023-02-13T04:45:18.285Z,102845.88
2023-02-13T04:47:54.359Z,102831.16
2023-02-13T04:50:22.357Z,102825.22
2023-02-13T04:52:55.577Z,102821.00
2023-02-13T04:55:24.412Z,102822.78
2023-02-13T04:57:55.864Z,102822.78
2023-02-13T05:00:26.117Z,102828.81
2023-02-13T05:02:53.901Z,102831.22
2023-02-13T05:05:21.489Z,102835.63
2023-02-13T05:07:48.502Z,102833.81
2023-02-13T05:10:15.743Z,102833.69
2023-02-13T05:12:42.642Z,102839.69
2023-02-13T05:15:10.376Z,102839.78
2023-02-13T05:17:37.299Z,102842.09
2023-02-13T05:20:04.426Z,102847.41
2023-02-13T05:22:50.116Z,102839.41
2023-02-13T05:25:17.235Z,102840.31
2023-02-13T05:27:44.177Z,102838.69
2023-02-13T05:30:12.180Z,102842.19
2023-02-13T05:32:39.236Z,102841.47
2023-02-13T05:35:06.562Z,102846.59
2023-02-13T05:37:33.466Z,102852.78
2023-02-13T05:40:00.335Z,102846.69
2023-02-13T05:42:27.311Z,102842.38
2023-02-13T05:44:54.269Z,102848.47
2023-02-13T05:47:21.128Z,102846.69
2023-02-13T05:49:48.039Z,102844.09
2023-02-13T05:52:14.951Z,102851.09
2023-02-13T05:54:41.830Z,102852.69
2023-02-13T05:57:08.741Z,102850.63
2023-02-13T05:59:35.635Z,102858.53
2023-02-13T06:02:02.529Z,102861.13
2023-02-13T06:04:29.470Z,102858.63
2023-02-13T06:06:56.374Z,102861.41
2023-02-13T06:09:23.320Z,102863.19
2023-02-13T06:11:50.209Z,102865.94
2023-02-13T06:14:17.149Z,102867.72
2023-02-13T06:16:44.186Z,102867.66
2023-02-13T06:19:11.086Z,102875.38
2023-02-13T06:21:38.531Z,102864.81
2023-02-13T06:24:08.283Z,102872.59
2023-02-13T06:26:35.584Z,102868.94
2023-02-13T06:29:02.484Z,102864.63
2023-02-13T06:31:29.466Z,102874.13
2023-02-13T06:33:56.486Z,102873.50
2023-02-13T06:36:23.372Z,102869.28
2023-02-13T06:38:50.378Z,102872.84
2023-02-13T06:41:17.300Z,102871.97
2023-02-13T06:43:44.148Z,102884.16
2023-02-13T06:46:11.160Z,102882.53
2023-02-13T06:48:38.131Z,102876.44
2023-02-13T06:51:05.513Z,102890.44
2023-02-13T06:53:32.403Z,102887.81
2023-02-13T06:55:59.388Z,102882.63
2023-02-13T06:58:26.717Z,102887.03
2023-02-13T07:00:54.057Z,102889.72
2023-02-13T07:03:21.337Z,102894.13
2023-02-13T07:05:48.298Z,102902.00
2023-02-13T07:08:15.218Z,102895.00
2023-02-13T07:10:42.602Z,102892.31
2023-02-13T07:13:10.242Z,102895.00
2023-02-13T07:15:38.282Z,102905.59
2023-02-13T07:18:06.318Z,102903.19
2023-02-13T07:20:33.893Z,102899.84
2023-02-13T07:23:04.023Z,102900.84
2023-02-13T07:25:31.530Z,102898.25
2023-02-13T07:28:06.463Z,102900.03
2023-02-13T07:30:34.759Z,102909.91
2023-02-13T07:33:03.500Z,102907.31
2023-02-13T07:35:31.009Z,102902.91
2023-02-13T07:37:58.107Z,102902.91
2023-02-13T07:40:25.031Z,102905.59
2023-02-13T07:42:51.928Z,102909.19
2023-02-13T07:45:18.858Z,102900.56
2023-02-13T07:47:45.842Z,102907.53
2023-02-13T07:50:13.318Z,102912.75
2023-02-13T07:52:40.360Z,102916.25
2023-02-13T07:55:08.297Z,102911.00
2023-02-13T07:57:35.184Z,102913.66
2023-02-13T08:00:02.356Z,102918.22
2023-02-13T08:02:29.316Z,102914.19
2023-02-13T08:04:56.196Z,102932.59
2023-02-13T08:07:23.100Z,102924.81
2023-02-13T08:10:08.610Z,102918.91
2023-02-13T08:12:36.666Z,102916.28
2023-02-13T08:15:04.394Z,102914.69
2023-02-13T08:17:31.321Z,102917.47
2023-02-13T08:19:58.870Z,102925.44
2023-02-13T08:22:25.853Z,102918.84
2023-02-13T08:24:53.042Z,102919.13
2023-02-13T08:27:20.144Z,102921.91
2023-02-13T08:29:49.369Z,102912.56
2023-02-13T08:32:16.557Z,102910.00
2023-02-13T08:34:43.543Z,102918.88
2023-02-13T08:37:10.466Z,102926.69
2023-02-13T08:39:37.755Z,102917.09
2023-02-13T08:42:04.635Z,102921.50
2023-02-13T08:44:31.639Z,102925.00
2023-02-13T08:46:58.529Z,102930.91
2023-02-13T08:49:25.501Z,102921.31
2023-02-13T08:51:52.425Z,102920.38
2023-02-13T08:54:19.323Z,102914.16
2023-02-13T08:56:46.235Z,102922.88
2023-02-13T08:59:13.369Z,102918.41
2023-02-13T09:01:40.695Z,102915.88
2023-02-13T09:04:07.772Z,102916.88
2023-02-13T09:06:34.831Z,102918.66
2023-02-13T09:09:01.711Z,102922.28
2023-02-13T09:11:28.681Z,102924.19
2023-02-13T09:13:55.732Z,102923.38
2023-02-13T09:16:22.844Z,102920.75
2023-02-13T09:18:51.359Z,102925.97
2023-02-13T09:21:20.829Z,102919.88
2023-02-13T09:23:47.746Z,102924.25
2023-02-13T09:26:16.227Z,102925.00
2023-02-13T09:28:44.141Z,102930.19
2023-02-13T09:31:20.073Z,102930.09
2023-02-13T09:33:49.081Z,102926.59
2023-02-13T09:36:20.662Z,102938.00
2023-02-13T09:38:52.428Z,102936.38
2023-02-13T09:41:23.335Z,102936.56
2023-02-13T09:43:59.182Z,102943.50
2023-02-13T09:46:40.717Z,102941.06
2023-02-13T09:49:16.076Z,102946.19
2023-02-13T09:51:54.369Z,102943.13
2023-02-13T09:54:22.275Z,102931.31
2023-02-13T09:57:28.902Z,102930.75
2023-02-13T10:00:16.374Z,102932.91
2023-02-13T10:02:59.314Z,102933.31
2023-02-13T10:05:47.119Z,102922.63
2023-02-13T10:08:48.232Z,102928.00
2023-02-13T10:11:47.432Z,102932.63
2023-02-13T10:14:27.270Z,102923.47
2023-02-13T10:17:06.628Z,102929.94
2023-02-13T10:19:55.432Z,102930.34
2023-02-13T10:22:36.202Z,102935.19
2023-02-13T10:25:21.604Z,102925.06
2023-02-13T10:28:15.888Z,102924.19
2023-02-13T10:31:03.873Z,102926.88
2023-02-13T10:34:02.948Z,102931.09
2023-02-13T10:36:37.974Z,102926.16
2023-02-13T10:39:07.794Z,102924.53
2023-02-13T10:41:43.703Z,102925.66
2023-02-13T10:44:19.484Z,102924.91
2023-02-13T10:47:19.095Z,102924.84
2023-02-13T10:50:13.244Z,102917.91
2023-02-13T10:53:18.410Z,102919.50
2023-02-13T10:56:26.186Z,102923.44
2023-02-13T10:59:14.838Z,102909.13
2023-02-13T11:02:25.537Z,102910.66
2023-02-13T11:05:02.727Z,102906.59
2023-02-13T11:07:31.590Z,102903.59
2023-02-13T11:10:21.261Z,102911.50
2023-02-13T11:12:49.369Z,102901.56
2023-02-13T11:15:25.645Z,102900.41
2023-02-13T11:17:55.545Z,102900.75
2023-02-13T11:21:02.349Z,102899.22
2023-02-13T11:23:32.232Z,102892.50
2023-02-13T11:26:08.707Z,102891.94
2023-02-13T11:29:05.184Z,102896.66
2023-02-13T11:31:38.191Z,102900.81
2023-02-13T11:34:27.533Z,102893.19
2023-02-13T11:37:22.551Z,102895.22
2023-02-13T11:39:54.353Z,102882.50
2023-02-13T11:42:32.458Z,102882.34
2023-02-13T11:45:22.833Z,102888.94
2023-02-13T11:47:50.046Z,102883.66
2023-02-13T11:50:35.185Z,102876.00
2023-02-13T11:53:05.027Z,102880.56
2023-02-13T11:55:40.552Z,102879.00
2023-02-13T11:58:16.575Z,102868.78
2023-02-13T12:00:44.114Z,102868.94
2023-02-13T12:03:30.829Z,102872.22
2023-02-13T12:06:15.657Z,102867.88
2023-02-13T12:08:47.374Z,102867.75
2023-02-13T12:11:47.352Z,102863.19
2023-02-13T12:14:23.738Z,102860.66
2023-02-13T12:17:00.366Z,102876.88
2023-02-13T12:19:51.549Z,102876.53
2023-02-13T12:23:06.091Z,102866.13
2023-02-13T12:26:31.244Z,102863.84
2023-02-13T12:29:38.808Z,102860.19
2023-02-13T12:32:37.934Z,102866.53
2023-02-13T12:35:44.869Z,102861.78
2023-02-13T12:38:35.341Z,102875.06
2023-02-13T12:41:22.708Z,102858.50
2023-02-13T12:44:10.207Z,102868.13
2023-02-13T12:47:09.245Z,102872.53
2023-02-13T12:50:01.091Z,102872.44
2023-02-13T12:53:08.868Z,102871.72
2023-02-13T12:56:15.016Z,102870.06
2023-02-13T12:59:07.296Z,102869.84
2023-02-13T13:02:07.691Z,102869.50
2023-02-13T13:04:50.855Z,102867.59
2023-02-13T13:07:33.567Z,102863.03
2023-02-13T13:10:27.190Z,102865.47
2023-02-13T13:13:12.384Z,102852.69
2023-02-13T13:16:06.325Z,102862.38
2023-02-13T13:18:58.149Z,102851.06
2023-02-13T13:22:00.421Z,102862.38
2023-02-13T13:25:08.955Z,102862.47
2023-02-13T13:27:50.500Z,102865.97
2023-02-13T13:30:35.689Z,102858.72
2023-02-13T13:33:24.674Z,102872.31
2023-02-13T13:36:26.385Z,102873.09
2023-02-13T13:39:17.336Z,102862.72
2023-02-13T13:42:01.022Z,102865.56
2023-02-13T13:45:07.904Z,102868.97
2023-02-13T13:48:26.085Z,102861.97
2023-02-13T13:50:53.831Z,102860.88
2023-02-13T13:53:26.390Z,102861.44
2023-02-13T13:55:53.314Z,102861.94
2023-02-13T13:58:38.022Z,102866.94
2023-02-13T14:01:30.657Z,102861.47
2023-02-13T14:03:59.094Z,102858.94
2023-02-13T14:06:39.843Z,102847.38
2023-02-13T14:09:09.748Z,102846.28
2023-02-13T14:11:44.589Z,102846.75
2023-02-13T14:14:28.025Z,102839.75
2023-02-13T14:16:57.963Z,102839.81
2023-02-13T14:19:40.503Z,102835.44
2023-02-13T14:22:34.803Z,102844.41
2023-02-13T14:25:28.030Z,102841.06
2023-02-13T14:28:02.428Z,102834.25
2023-02-13T14:30:34.310Z,102827.25
2023-02-13T14:33:08.088Z,102816.00
2023-02-13T14:35:37.940Z,102826.44
2023-02-13T14:38:22.276Z,102821.91
2023-02-13T14:40:50.794Z,102825.16
2023-02-13T14:43:33.109Z,102815.31
2023-02-13T14:46:26.749Z,102820.31
2023-02-13T14:48:58.609Z,102815.09
2023-02-13T14:51:38.749Z,102821.13
2023-02-13T14:54:51.541Z,102814.75
2023-02-13T14:57:27.694Z,102815.41
2023-02-13T15:00:02.493Z,102810.13
2023-02-13T15:02:37.577Z,102803.19
2023-02-13T15:05:15.611Z,102805.72
2023-02-13T15:07:51.539Z,102809.91
2023-02-13T15:10:47.098Z,102813.53
2023-02-13T15:13:18.483Z,102816.47
2023-02-13T15:15:58.938Z,102812.97
2023-02-13T15:18:37.352Z,102802.56
2023-02-13T15:21:04.579Z,102798.25
2023-02-13T15:23:33.746Z,102791.22
2023-02-13T15:26:08.872Z,102781.41
2023-02-13T15:28:36.538Z,102788.25
2023-02-13T15:31:17.343Z,102781.97
2023-02-13T15:33:47.579Z,102786.22
2023-02-13T15:36:27.234Z,102781.72
2023-02-13T15:39:04.250Z,102778.31
2023-02-13T15:41:38.826Z,102773.25
2023-02-13T15:44:06.931Z,102782.72
2023-02-13T15:46:38.628Z,102767.72
2023-02-13T15:49:19.317Z,102772.84
2023-02-13T15:51:47.513Z,102769.94
2023-02-13T15:54:32.920Z,102776.44
2023-02-13T15:57:04.808Z,102772.81
2023-02-13T15:59:37.195Z,102772.72
2023-02-13T16:02:13.012Z,102762.13
2023-02-13T16:04:41.738Z,102769.78
2023-02-13T16:07:13.191Z,102780.03
2023-02-13T16:09:40.383Z,102775.63
2023-02-13T16:12:18.337Z,102778.22
2023-02-13T16:14:54.690Z,102786.84
2023-02-13T16:17:30.921Z,102778.19
2023-02-13T16:20:05.433Z,102779.00
2023-02-13T16:22:39.205Z,102786.53
2023-02-13T16:25:12.082Z,102788.06
2023-02-13T16:27:58.207Z,102788.88
2023-02-13T16:30:37.448Z,102795.06
2023-02-13T16:33:16.661Z,102796.88
2023-02-13T16:36:11.417Z,102789.06
2023-02-13T16:38:49.406Z,102801.25
2023-02-13T16:41:19.284Z,102795.16
2023-02-13T16:43:52.513Z,102795.06
2023-02-13T16:46:28.420Z,102794.81
2023-02-13T16:48:58.789Z,102779.94
2023-02-13T16:51:40.278Z,102781.31
2023-02-13T16:54:29.999Z,102782.59
2023-02-13T16:57:06.883Z,102784.28
2023-02-13T17:00:02.247Z,102779.91
2023-02-13T17:02:34.878Z,102791.28
2023-02-13T17:05:08.171Z,102793.88
2023-02-13T17:07:44.330Z,102806.28
2023-02-13T17:10:33.966Z,102802.84
2023-02-13T17:13:11.466Z,102799.44
2023-02-13T17:15:43.900Z,102809.94
2023-02-13T17:18:11.018Z,102805.53
2023-02-13T17:20:41.960Z,102809.03
2023-02-13T17:23:23.424Z,102814.25
2023-02-13T17:25:53.670Z,102809.94
2023-02-13T17:28:22.912Z,102809.13
2023-02-13T17:30:53.130Z,102807.50
2023-02-13T17:33:34.235Z,102816.22
2023-02-13T17:36:02.168Z,102810.19
2023-02-13T17:38:29.076Z,102804.19
2023-02-13T17:40:56.335Z,102804.28
2023-02-13T17:43:25.321Z,102805.97
2023-02-13T17:45:52.535Z,102808.41
2023-02-13T17:48:19.743Z,102803.28
2023-02-13T17:50:49.333Z,102812.13
2023-02-13T17:53:23.272Z,102813.13
2023-02-13T17:55:50.407Z,102816.53
2023-02-13T17:58:17.282Z,102819.00
2023-02-13T18:00:44.371Z,102819.72
2023-02-13T18:03:12.747Z,102811.56
2023-02-13T18:05:40.277Z,102820.91
2023-02-13T18:08:08.389Z,102816.50
2023-02-13T18:10:37.227Z,102818.16
2023-02-13T18:13:04.673Z,102818.13
2023-02-13T18:15:39.393Z,102805.91
2023-02-13T18:18:06.960Z,102814.72
2023-02-13T18:20:34.158Z,102812.91
2023-02-13T18:23:01.142Z,102808.44
2023-02-13T18:25:29.105Z,102807.53
2023-02-13T18:27:56.138Z,102815.34
2023-02-13T18:30:23.442Z,102822.16
2023-02-13T18:32:55.615Z,102816.16
2023-02-13T18:35:23.464Z,102821.34
2023-02-13T18:37:50.894Z,102823.16
2023-02-13T18:40:18.220Z,102820.53
2023-02-13T18:42:45.380Z,102824.66
2023-02-13T18:45:12.575Z,102814.00
2023-02-13T18:47:39.454Z,102813.09
2023-02-13T18:50:07.883Z,102820.81
2023-02-13T18:52:35.272Z,102816.38
2023-02-13T18:55:02.637Z,102811.88
2023-02-13T18:57:29.572Z,102810.97
2023-02-13T18:59:56.788Z,102815.28
2023-02-13T19:02:23.821Z,102814.47
2023-02-13T19:04:50.856Z,102817.41
2023-02-13T19:07:17.797Z,102815.78
2023-02-13T19:09:44.812Z,102809.53
2023-02-13T19:12:11.773Z,102814.41
2023-02-13T19:14:39.754Z,102805.50
2023-02-13T19:17:08.490Z,102804.63
2023-02-13T19:19:35.437Z,102800.94
2023-02-13T19:22:03.425Z,102810.38
2023-02-13T19:24:30.449Z,102814.69
2023-02-13T19:26:57.324Z,102804.13
2023-02-13T19:29:24.320Z,102817.03
2023-02-13T19:31:51.197Z,102813.53
2023-02-13T19:34:18.166Z,102818.47
2023-02-13T19:36:45.069Z,102820.25
2023-02-13T19:39:12.171Z,102813.34
2023-02-13T19:41:40.742Z,102824.81
2023-02-13T19:44:08.746Z,102831.00
2023-02-13T19:46:37.898Z,102827.69
2023-02-13T19:49:05.912Z,102824.19
2023-02-13T19:51:34.610Z,102832.00
2023-02-13T19:54:05.520Z,102833.72
2023-02-13T19:56:35.364Z,102835.41
2023-02-13T19:59:02.494Z,102830.22
2023-02-13T20:01:30.305Z,102828.41
2023-02-13T20:03:57.778Z,102830.84
2023-02-13T20:06:31.382Z,102831.56
2023-02-13T20:09:02.197Z,102836.03
2023-02-13T20:11:29.441Z,102838.63
2023-02-13T20:14:02.245Z,102828.31
2023-02-13T20:16:34.166Z,102831.81
2023-02-13T20:19:06.314Z,102838.81
2023-02-13T20:21:34.394Z,102837.03
2023-02-13T20:24:05.189Z,102848.13
2023-02-13T20:26:32.355Z,102837.56
2023-02-13T20:28:59.730Z,102843.66
2023-02-13T20:31:29.288Z,102844.56
2023-02-13T20:33:57.326Z,102839.34
2023-02-13T20:36:30.882Z,102853.06
2023-02-13T20:39:01.251Z,102842.75
2023-02-13T20:41:32.344Z,102860.97
2023-02-13T20:44:03.278Z,102854.06
2023-02-13T20:46:36.604Z,102860.63
2023-02-13T20:49:03.955Z,102867.44
2023-02-13T20:51:31.397Z,102856.94
2023-02-13T20:53:59.904Z,102863.84
2023-02-13T20:56:28.279Z,102871.75
2023-02-13T20:59:00.491Z,102862.94
2023-02-13T21:01:34.931Z,102873.53
2023-02-13T21:04:02.471Z,102876.22
2023-02-13T21:06:32.693Z,102879.72
2023-02-13T21:08:59.902Z,102888.16
2023-02-13T21:11:28.362Z,102883.66
2023-02-13T21:13:57.387Z,102887.53
2023-02-13T21:16:28.316Z,102885.63
2023-02-13T21:18:58.652Z,102879.34
2023-02-13T21:21:29.694Z,102877.66
2023-02-13T21:24:00.366Z,102885.63
2023-02-13T21:26:28.264Z,102885.53
2023-02-13T21:28:55.487Z,102882.75
2023-02-13T21:31:31.497Z,102886.16
2023-02-13T21:34:04.645Z,102887.75
2023-02-13T21:36:33.887Z,102886.78
2023-02-13T21:39:02.154Z,102888.31
2023-02-13T21:41:29.158Z,102888.13
2023-02-13T21:43:56.056Z,102891.53
2023-02-13T21:46:26.843Z,102885.44
2023-02-13T21:48:56.371Z,102890.72
2023-02-13T21:51:25.304Z,102882.13
2023-02-13T21:53:53.225Z,102884.63
2023-02-13T21:56:26.630Z,102877.44
2023-02-13T21:58:54.082Z,102887.94
2023-02-13T22:01:35.010Z,102891.72
2023-02-13T22:04:05.890Z,102881.22
2023-02-13T22:06:36.031Z,102890.91
2023-02-13T22:09:13.754Z,102883.13
2023-02-13T22:11:41.795Z,102882.22
2023-02-13T22:14:17.055Z,102877.72
2023-02-13T22:16:45.491Z,102886.03
2023-02-13T22:19:15.372Z,102890.81
2023-02-13T22:21:42.593Z,102902.59
2023-02-13T22:24:09.733Z,102890.88
2023-02-13T22:26:40.316Z,102896.66
2023-02-13T22:29:11.157Z,102896.66
2023-02-13T22:31:38.711Z,102901.88
2023-02-13T22:34:06.383Z,102896.56
2023-02-13T22:36:40.993Z,102902.66
2023-02-13T22:39:10.020Z,102907.06
2023-02-13T22:41:37.499Z,102901.88
2023-02-13T22:44:04.695Z,102908.75
2023-02-13T22:46:33.319Z,102902.47
2023-02-13T22:49:00.871Z,102908.28
2023-02-13T22:51:32.703Z,102909.59
2023-02-13T22:54:00.497Z,102914.50
2023-02-13T22:56:29.518Z,102905.72
2023-02-13T22:58:56.854Z,102910.66
2023-02-13T23:01:27.296Z,102912.50
2023-02-13T23:03:55.203Z,102903.22
2023-02-13T23:06:23.448Z,102903.13
2023-02-13T23:08:52.732Z,102906.25
2023-02-13T23:11:41.865Z,102902.66
2023-02-13T23:14:10.074Z,102898.19
2023-02-13T23:16:58.031Z,102897.06
2023-02-13T23:19:27.340Z,102892.78
2023-02-13T23:21:54.296Z,102903.47
2023-02-13T23:24:21.806Z,102897.56
2023-02-13T23:26:48.712Z,102901.25
2023-02-13T23:29:16.232Z,102896.22
2023-02-13T23:31:43.247Z,102901.44
2023-02-13T23:34:10.304Z,102899.63
2023-02-13T23:36:37.337Z,102897.84
2023-02-13T23:39:04.290Z,102906.47
2023-02-13T23:41:31.199Z,102906.25
2023-02-13T23:43:58.132Z,102911.34
2023-02-13T23:46:25.030Z,102913.06
2023-02-13T23:48:52.097Z,102916.34
2023-02-13T23:51:20.972Z,102910.97
2023-02-13T23:53:47.878Z,102917.84
2023-02-13T23:56:14.876Z,102908.34
2023-02-13T23:58:41.829Z,102906.06
